Time;durP1;ratioP1;P1;durP2;ratioP2;P2;SDS_P1;SDS_P2;PMS_P1;PMS_P2;Temp;Humidity;BMP_temperature;BMP_pressure;BME280_temperature;BME280_humidity;BME280_pressure;Samples;Min_cycle;Max_cycle;Signal;HPM_P1;HPM_P2
2023/11/23 00:02:17;;;;;;;7.78;7.28;;;;;;;4.43;100.00;96871.78;5024450;28;20172;-63
2023/11/23 00:04:43;;;;;;;7.45;6.85;;;;;;;4.47;100.00;96872.50;5021830;28;20076;-63
2023/11/23 00:07:08;;;;;;;9.98;9.27;;;;;;;4.29;100.00;96875.06;5027417;28;20575;-63
2023/11/23 00:09:33;;;;;;;9.30;8.70;;;;;;;4.37;100.00;96874.72;5025028;28;20520;-63
2023/11/23 00:11:59;;;;;;;9.38;8.68;;;;;;;4.29;100.00;96868.09;5017586;28;20021;-64
2023/11/23 00:14:25;;;;;;;9.60;8.70;;;;;;;4.28;100.00;96869.00;5016099;28;20022;-63
2023/11/23 00:16:50;;;;;;;9.10;8.40;;;;;;;4.35;100.00;96868.72;5023443;28;20029;-63
2023/11/23 00:19:16;;;;;;;9.18;8.57;;;;;;;4.35;100.00;96869.56;5018872;28;20058;-63
2023/11/23 00:21:41;;;;;;;10.35;9.73;;;;;;;4.35;100.00;96858.31;5029383;28;20395;-63
2023/11/23 00:24:07;;;;;;;10.07;9.38;;;;;;;4.30;100.00;96861.94;5028637;28;20517;-63
2023/11/23 00:26:34;;;;;;;9.68;9.00;;;;;;;4.33;100.00;96863.56;5031864;28;20034;-63
2023/11/23 00:29:00;;;;;;;9.32;8.68;;;;;;;4.28;100.00;96865.56;5021342;28;20037;-63
2023/11/23 00:31:26;;;;;;;9.60;9.00;;;;;;;4.32;100.00;96872.31;5025478;28;20124;-63
2023/11/23 00:33:51;;;;;;;9.70;9.07;;;;;;;4.29;100.00;96869.88;5024008;28;20049;-63
2023/11/23 00:36:17;;;;;;;8.50;7.90;;;;;;;4.24;100.00;96869.25;5019104;28;20029;-63
2023/11/23 00:38:42;;;;;;;9.63;8.88;;;;;;;4.28;100.00;96870.78;5017916;28;20033;-63
2023/11/23 00:41:08;;;;;;;9.02;8.40;;;;;;;4.45;100.00;96877.78;5024582;28;20033;-63
2023/11/23 00:43:34;;;;;;;9.15;8.57;;;;;;;4.39;100.00;96870.25;5017877;28;20060;-63
2023/11/23 00:46:01;;;;;;;10.10;9.40;;;;;;;4.54;100.00;96879.09;5014986;28;20052;-63
2023/11/23 00:48:27;;;;;;;9.15;8.55;;;;;;;4.39;100.00;96872.88;5018279;28;20101;-63
2023/11/23 00:50:54;;;;;;;8.60;8.00;;;;;;;4.37;100.00;96872.09;5026698;28;20402;-63
2023/11/23 00:53:21;;;;;;;9.73;9.02;;;;;;;4.40;100.00;96877.16;5022339;28;20036;-63
2023/11/23 00:55:46;;;;;;;10.25;9.45;;;;;;;4.26;100.00;96870.84;5028520;28;20059;-63
2023/11/23 00:58:12;;;;;;;10.00;9.25;;;;;;;4.28;100.00;96873.38;5017932;28;20560;-63
2023/11/23 01:00:37;;;;;;;10.77;9.98;;;;;;;4.26;100.00;96880.44;5021857;28;20035;-63
2023/11/23 01:03:03;;;;;;;18.85;16.95;;;;;;;4.24;100.00;96883.09;5026889;28;20026;-64
2023/11/23 01:05:28;;;;;;;25.77;19.92;;;;;;;4.19;100.00;96885.09;5017750;28;20040;-64
2023/11/23 01:07:54;;;;;;;44.25;31.95;;;;;;;4.22;100.00;96886.72;5027575;28;20068;-63
2023/11/23 01:10:20;;;;;;;9.23;8.43;;;;;;;4.25;100.00;96884.78;5023155;28;20080;-63
2023/11/23 01:12:45;;;;;;;10.07;9.15;;;;;;;4.23;100.00;96885.81;5023264;28;20017;-63
2023/11/23 01:15:12;;;;;;;9.57;7.72;;;;;;;4.15;100.00;96884.38;5015199;28;20371;-64
2023/11/23 01:17:37;;;;;;;8.77;8.07;;;;;;;4.24;100.00;96877.06;5024214;28;20107;-64
2023/11/23 01:20:05;;;;;;;10.55;8.73;;;;;;;4.20;100.00;96885.94;5021969;28;20026;-63
2023/11/23 01:22:31;;;;;;;13.10;12.02;;;;;;;4.14;100.00;96894.91;5027230;28;20021;-63
2023/11/23 01:24:56;;;;;;;17.58;15.95;;;;;;;4.10;100.00;96904.63;5021974;28;20036;-63
2023/11/23 01:27:21;;;;;;;25.88;23.15;;;;;;;4.12;100.00;96908.00;5014592;28;20087;-64
2023/11/23 01:29:47;;;;;;;11.68;10.85;;;;;;;4.20;100.00;96901.56;5015352;28;20029;-64
2023/11/23 01:32:12;;;;;;;10.95;10.15;;;;;;;4.24;100.00;96893.53;5029517;28;20096;-63
2023/11/23 01:34:37;;;;;;;13.80;12.40;;;;;;;4.21;100.00;96903.28;5019094;28;20022;-64
2023/11/23 01:37:03;;;;;;;10.48;9.77;;;;;;;4.24;100.00;96897.91;5016574;28;20124;-64
2023/11/23 01:39:28;;;;;;;15.05;13.48;;;;;;;4.24;100.00;96898.75;5025671;28;20025;-65
2023/11/23 01:41:54;;;;;;;9.68;8.98;;;;;;;4.29;100.00;96885.50;5026286;28;20033;-64
2023/11/23 01:44:20;;;;;;;8.60;7.90;;;;;;;4.24;100.00;96882.28;5016149;28;20041;-64
2023/11/23 01:46:46;;;;;;;8.45;7.75;;;;;;;4.33;100.00;96881.00;5023396;28;20116;-65
2023/11/23 01:49:11;;;;;;;27.35;18.38;;;;;;;4.19;100.00;96887.69;5032856;28;20067;-64
2023/11/23 01:51:37;;;;;;;29.95;17.85;;;;;;;4.09;100.00;96895.13;5019318;28;20091;-65
2023/11/23 01:54:03;;;;;;;8.43;7.80;;;;;;;4.11;100.00;96898.50;5026197;28;20029;-65
2023/11/23 01:56:29;;;;;;;9.07;8.38;;;;;;;4.21;100.00;96892.84;5020637;28;20029;-65
2023/11/23 01:58:55;;;;;;;8.85;8.05;;;;;;;4.29;100.00;96890.72;5021893;28;20117;-65
2023/11/23 02:01:21;;;;;;;8.40;7.75;;;;;;;4.22;100.00;96889.34;5024060;28;20065;-65
2023/11/23 02:03:48;;;;;;;8.65;7.95;;;;;;;4.19;100.00;96889.44;5023232;28;20040;-64
2023/11/23 02:06:13;;;;;;;8.68;8.07;;;;;;;4.19;100.00;96890.31;5031308;28;20033;-64
2023/11/23 02:08:39;;;;;;;9.13;8.23;;;;;;;4.10;100.00;96893.38;5019162;28;20083;-65
2023/11/23 02:11:06;;;;;;;10.65;9.75;;;;;;;4.04;100.00;96904.06;5031686;28;20539;-65
2023/11/23 02:13:33;;;;;;;9.55;8.85;;;;;;;4.04;100.00;96906.66;5018542;28;20037;-65
2023/11/23 02:15:58;;;;;;;10.00;9.02;;;;;;;4.03;100.00;96908.44;5030950;28;20075;-64
2023/11/23 02:18:24;;;;;;;9.82;9.07;;;;;;;3.97;100.00;96906.97;5018999;28;20515;-65
2023/11/23 02:20:49;;;;;;;19.13;17.63;;;;;;;3.99;100.00;96907.72;5028342;28;20136;-65
2023/11/23 02:23:14;;;;;;;13.55;12.55;;;;;;;3.97;100.00;96901.75;5023079;28;20029;-65
2023/11/23 02:25:40;;;;;;;11.80;10.90;;;;;;;3.97;100.00;96904.34;5032526;28;20180;-64
2023/11/23 02:28:06;;;;;;;11.50;10.43;;;;;;;4.17;100.00;96897.38;5023323;28;20025;-64
2023/11/23 02:30:32;;;;;;;11.65;10.23;;;;;;;4.01;100.00;96894.63;5019861;28;20026;-65
2023/11/23 02:33:01;;;;;;;12.05;10.95;;;;;;;3.96;100.00;96888.78;5018091;28;20493;-65
2023/11/23 02:35:26;;;;;;;11.13;10.13;;;;;;;3.95;100.00;96890.56;5017522;28;20083;-65
2023/11/23 02:37:52;;;;;;;12.60;11.30;;;;;;;4.03;100.00;96886.72;5022182;28;20106;-65
2023/11/23 02:40:17;;;;;;;14.27;12.77;;;;;;;3.90;100.00;96883.84;5025849;28;20033;-65
2023/11/23 02:42:43;;;;;;;10.02;9.13;;;;;;;3.94;100.00;96881.03;5023312;28;20018;-64
2023/11/23 02:45:09;;;;;;;14.88;13.38;;;;;;;3.90;100.00;96884.72;5013959;28;20212;-65
2023/11/23 02:47:35;;;;;;;8.40;7.55;;;;;;;4.01;100.00;96884.22;5013640;28;20060;-65
2023/11/23 02:50:01;;;;;;;11.00;10.05;;;;;;;3.92;100.00;96887.22;5030596;28;20021;-65
2023/11/23 02:52:26;;;;;;;14.82;13.23;;;;;;;3.94;100.00;96880.19;5046579;28;20021;-65
2023/11/23 02:54:51;;;;;;;13.35;12.05;;;;;;;3.91;100.00;96870.78;5018332;28;20115;-64
2023/11/23 02:57:17;;;;;;;12.70;11.68;;;;;;;3.86;100.00;96890.97;5023286;28;20034;-64
2023/11/23 02:59:43;;;;;;;15.00;13.75;;;;;;;3.85;100.00;96890.13;5030130;28;20101;-65
2023/11/23 03:02:08;;;;;;;11.27;10.38;;;;;;;3.96;100.00;96900.06;5022218;28;20025;-65
2023/11/23 03:04:33;;;;;;;11.32;10.52;;;;;;;4.03;100.00;96904.97;5033679;28;20097;-65
2023/11/23 03:06:59;;;;;;;11.50;10.73;;;;;;;4.02;100.00;96901.53;5022046;28;20380;-65
2023/11/23 03:09:24;;;;;;;12.15;11.25;;;;;;;4.09;100.00;96895.13;5048253;28;20033;-64
2023/11/23 03:11:50;;;;;;;11.75;10.93;;;;;;;4.22;100.00;96897.16;5034188;28;20497;-65
2023/11/23 03:14:15;;;;;;;10.40;9.48;;;;;;;4.15;100.00;96899.19;5019848;28;20037;-64
2023/11/23 03:16:41;;;;;;;12.30;11.50;;;;;;;4.12;100.00;96901.94;5033206;28;20029;-65
2023/11/23 03:19:07;;;;;;;10.40;9.50;;;;;;;4.07;100.00;96907.38;5028449;28;20054;-65
2023/11/23 03:21:32;;;;;;;10.40;9.50;;;;;;;4.07;100.00;96906.50;5027998;28;20025;-64
2023/11/23 03:23:58;;;;;;;9.80;9.07;;;;;;;4.12;100.00;96905.38;5033732;28;20030;-65
2023/11/23 03:26:23;;;;;;;10.00;9.23;;;;;;;4.09;100.00;96910.75;5018305;28;20049;-65
2023/11/23 03:28:48;;;;;;;10.02;9.23;;;;;;;4.09;100.00;96912.50;5033798;28;20029;-64
2023/11/23 03:31:14;;;;;;;12.40;11.50;;;;;;;4.03;100.00;96915.41;5024283;28;20085;-65
2023/11/23 03:33:41;;;;;;;11.80;11.00;;;;;;;4.00;100.00;96917.22;5022149;28;20018;-65
2023/11/23 03:36:07;;;;;;;13.20;11.82;;;;;;;4.04;100.00;96924.91;5034741;28;20030;-65
2023/11/23 03:38:33;;;;;;;11.90;11.10;;;;;;;4.04;100.00;96927.50;5024202;28;20503;-65
2023/11/23 03:40:59;;;;;;;12.00;11.23;;;;;;;4.25;100.00;96923.91;5025346;28;20037;-65
2023/11/23 03:43:25;;;;;;;10.30;9.15;;;;;;;4.20;100.00;96919.81;5023491;28;20036;-64
2023/11/23 03:45:50;;;;;;;9.68;8.88;;;;;;;4.01;100.00;96931.94;5038072;28;20025;-65
2023/11/23 03:48:15;;;;;;;10.10;9.30;;;;;;;4.08;100.00;96929.91;5029354;28;20099;-65
2023/11/23 03:50:41;;;;;;;10.63;9.68;;;;;;;3.98;100.00;96926.06;5028348;28;20084;-65
2023/11/23 03:53:06;;;;;;;12.60;11.70;;;;;;;4.00;100.00;96932.88;5025113;28;20030;-65
2023/11/23 03:55:32;;;;;;;12.55;11.63;;;;;;;4.04;100.00;96930.13;5029084;28;20021;-65
2023/11/23 03:57:57;;;;;;;11.95;11.05;;;;;;;3.88;100.00;96933.44;5019195;28;20029;-65
2023/11/23 04:00:23;;;;;;;13.77;12.77;;;;;;;3.90;100.00;96929.00;5035705;28;20032;-65
2023/11/23 04:02:48;;;;;;;12.48;11.38;;;;;;;3.84;100.00;96935.34;5030828;28;20045;-65
2023/11/23 04:05:18;;;;;;;12.00;11.20;;;;;;;3.80;100.00;96925.97;5031934;28;20025;-65
2023/11/23 04:07:43;;;;;;;12.50;11.50;;;;;;;3.93;100.00;96936.69;5029224;28;20112;-65
2023/11/23 04:10:09;;;;;;;12.48;11.57;;;;;;;3.81;100.00;96932.88;5030553;28;20112;-65
2023/11/23 04:12:35;;;;;;;12.48;11.57;;;;;;;3.78;100.00;96935.63;5018753;28;20072;-64
2023/11/23 04:15:01;;;;;;;13.00;12.10;;;;;;;3.78;100.00;96926.94;5029065;28;20059;-65
2023/11/23 04:17:26;;;;;;;11.75;10.93;;;;;;;3.80;100.00;96919.91;5034984;28;20044;-64
2023/11/23 04:19:54;;;;;;;12.38;11.48;;;;;;;3.86;100.00;96922.22;5037488;28;20144;-65
2023/11/23 04:22:22;;;;;;;12.65;11.55;;;;;;;3.86;100.00;96923.09;5019616;28;20030;-64
2023/11/23 04:24:48;;;;;;;11.80;10.90;;;;;;;3.82;100.00;96923.28;5021423;28;20096;-65
2023/11/23 04:27:14;;;;;;;12.52;11.63;;;;;;;3.82;100.00;96913.72;5023994;28;20025;-64
2023/11/23 04:29:40;;;;;;;13.52;12.50;;;;;;;3.82;100.00;96918.94;5026253;28;20018;-64
2023/11/23 04:32:11;;;;;;;10.75;9.90;;;;;;;3.78;100.00;96900.91;5036853;28;20030;-65
2023/11/23 04:34:36;;;;;;;12.70;11.77;;;;;;;3.71;100.00;96906.41;5018111;28;20045;-65
2023/11/23 04:37:03;;;;;;;13.65;12.65;;;;;;;3.80;100.00;96912.09;5021695;28;20029;-65
2023/11/23 04:39:28;;;;;;;12.73;11.82;;;;;;;3.72;100.00;96905.47;5026727;28;20036;-64
2023/11/23 04:41:55;;;;;;;12.85;11.85;;;;;;;3.75;100.00;96901.88;5029892;28;20402;-65
2023/11/23 04:44:20;;;;;;;16.25;15.05;;;;;;;3.72;100.00;96896.81;5017364;28;20571;-65
2023/11/23 04:46:46;;;;;;;17.40;16.00;;;;;;;3.68;100.00;96901.34;5017652;28;20153;-65
2023/11/23 04:49:11;;;;;;;16.27;14.98;;;;;;;3.73;100.00;96901.09;5028226;28;20112;-65
2023/11/23 04:51:37;;;;;;;28.83;20.77;;;;;;;3.67;100.00;96899.66;5035607;28;20033;-65
2023/11/23 04:54:02;;;;;;;12.73;11.45;;;;;;;3.66;100.00;96912.72;5036658;28;20025;-65
2023/11/23 04:56:28;;;;;;;28.88;20.98;;;;;;;3.64;100.00;96910.16;5020424;28;20022;-65
2023/11/23 04:58:53;;;;;;;38.17;21.33;;;;;;;3.64;100.00;96910.16;5019593;28;20096;-64
2023/11/23 05:01:19;;;;;;;13.10;11.70;;;;;;;3.63;100.00;96912.88;5027259;28;21423;-65
2023/11/23 05:03:44;;;;;;;16.73;15.05;;;;;;;3.63;100.00;96923.28;5015187;28;20090;-65
2023/11/23 05:06:09;;;;;;;11.88;10.77;;;;;;;3.66;100.00;96929.22;5016379;28;20029;-64
2023/11/23 05:08:36;;;;;;;16.50;14.70;;;;;;;3.65;100.00;96924.06;5030425;28;20022;-64
2023/11/23 05:11:02;;;;;;;25.08;20.25;;;;;;;3.65;100.00;96937.94;5016837;28;20028;-65
2023/11/23 05:13:27;;;;;;;26.88;21.50;;;;;;;3.64;100.00;96932.78;5029842;28;20025;-64
2023/11/23 05:15:53;;;;;;;11.15;10.25;;;;;;;3.65;100.00;96932.72;5023337;28;20367;-64
2023/11/23 05:18:18;;;;;;;12.43;11.23;;;;;;;3.65;100.00;96939.69;5023667;28;20058;-64
2023/11/23 05:20:43;;;;;;;11.43;10.30;;;;;;;3.65;100.00;96943.16;5035490;28;20025;-65
2023/11/23 05:23:09;;;;;;;13.82;12.48;;;;;;;3.66;100.00;96944.84;5035266;28;20053;-64
2023/11/23 05:25:34;;;;;;;23.08;17.73;;;;;;;3.66;100.00;96955.25;5021145;28;20426;-64
2023/11/23 05:28:00;;;;;;;11.85;10.82;;;;;;;3.66;100.00;96960.47;5022758;28;20100;-65
2023/11/23 05:30:27;;;;;;;12.80;11.90;;;;;;;3.68;100.00;96963.84;5022311;28;20457;-65
2023/11/23 05:32:52;;;;;;;11.70;10.63;;;;;;;3.66;100.00;96970.03;5022686;28;20041;-65
2023/11/23 05:35:18;;;;;;;13.98;12.88;;;;;;;3.71;100.00;96974.13;5020434;28;20055;-65
2023/11/23 05:37:43;;;;;;;15.63;14.32;;;;;;;3.68;100.00;96976.88;5034086;28;20022;-65
2023/11/23 05:40:11;;;;;;;15.02;13.82;;;;;;;3.71;100.00;96983.69;5023275;28;20025;-65
2023/11/23 05:42:37;;;;;;;20.42;18.73;;;;;;;3.70;100.00;96968.97;5027146;28;20021;-64
2023/11/23 05:45:02;;;;;;;17.30;15.90;;;;;;;3.67;100.00;96972.56;5019504;28;20504;-64
2023/11/23 05:47:28;;;;;;;24.35;21.85;;;;;;;3.67;100.00;96969.97;5032866;28;20033;-65
2023/11/23 05:49:53;;;;;;;17.60;16.15;;;;;;;3.62;100.00;96969.31;5019554;28;20075;-65
2023/11/23 05:52:18;;;;;;;14.85;13.45;;;;;;;3.61;100.00;96969.38;5033846;28;20029;-65
2023/11/23 05:54:44;;;;;;;18.58;16.17;;;;;;;3.55;100.00;96970.50;5021972;28;20124;-63
2023/11/23 05:57:10;;;;;;;24.27;22.20;;;;;;;3.58;100.00;96981.63;5029933;28;20033;-64
2023/11/23 05:59:36;;;;;;;19.00;17.50;;;;;;;3.59;100.00;96966.84;5026583;28;20108;-64
2023/11/23 06:02:05;;;;;;;16.63;15.20;;;;;;;3.66;100.00;96964.81;5030909;28;20030;-64
2023/11/23 06:04:31;;;;;;;13.77;12.68;;;;;;;3.68;100.00;96968.19;5023812;28;20048;-64
2023/11/23 06:06:56;;;;;;;14.38;13.27;;;;;;;3.73;100.00;96968.81;5021603;28;20573;-64
2023/11/23 06:09:22;;;;;;;11.80;10.82;;;;;;;3.66;100.00;96970.88;5022527;28;20104;-64
2023/11/23 06:11:47;;;;;;;12.75;11.85;;;;;;;3.66;100.00;96976.09;5033454;28;20112;-64
2023/11/23 06:14:13;;;;;;;13.68;12.48;;;;;;;3.64;100.00;96987.47;5016113;28;20014;-64
2023/11/23 06:16:38;;;;;;;13.95;12.95;;;;;;;3.65;100.00;96987.44;5023962;28;20029;-64
2023/11/23 06:19:04;;;;;;;13.68;12.65;;;;;;;3.69;100.00;96986.38;5016234;28;20078;-65
2023/11/23 06:21:29;;;;;;;13.60;12.65;;;;;;;3.70;100.00;96988.06;5025116;28;20025;-64
2023/11/23 06:23:55;;;;;;;13.77;12.73;;;;;;;3.81;100.00;96984.97;5028199;28;20471;-64
2023/11/23 06:26:20;;;;;;;12.73;11.52;;;;;;;3.77;100.00;96993.00;5025230;28;20021;-64
2023/11/23 06:28:47;;;;;;;18.02;16.70;;;;;;;3.80;100.00;96998.06;5031721;28;20028;-64
2023/11/23 06:31:12;;;;;;;20.92;18.88;;;;;;;3.71;100.00;96991.50;5026218;28;20486;-64
2023/11/23 06:33:37;;;;;;;17.63;16.33;;;;;;;3.68;100.00;96995.09;5026430;28;20184;-63
2023/11/23 06:36:03;;;;;;;14.75;13.57;;;;;;;3.68;100.00;97004.66;5019916;28;20386;-64
2023/11/23 06:38:28;;;;;;;13.23;12.27;;;;;;;3.62;100.00;97000.56;5024457;28;20076;-64
2023/11/23 06:40:55;;;;;;;21.17;19.50;;;;;;;3.59;100.00;97011.13;5020913;28;20025;-64
2023/11/23 06:43:21;;;;;;;14.60;13.30;;;;;;;3.58;100.00;97004.22;5018261;28;20521;-64
2023/11/23 06:45:46;;;;;;;13.73;12.52;;;;;;;3.58;100.00;97005.06;5017036;28;20069;-65
2023/11/23 06:48:12;;;;;;;13.98;12.85;;;;;;;3.57;100.00;96997.31;5019836;28;20064;-64
2023/11/23 06:50:37;;;;;;;12.43;10.82;;;;;;;3.59;100.00;96995.47;5020916;28;20017;-64
2023/11/23 06:53:03;;;;;;;11.25;10.15;;;;;;;3.54;100.00;96992.25;5029219;28;20100;-65
2023/11/23 06:55:28;;;;;;;12.02;11.02;;;;;;;3.54;100.00;96997.44;5028653;28;20025;-64
2023/11/23 06:57:53;;;;;;;12.82;10.55;;;;;;;3.56;100.00;96993.88;5031443;28;20029;-64
2023/11/23 07:00:22;;;;;;;19.52;18.02;;;;;;;3.60;100.00;97002.38;5022976;28;20060;-63
2023/11/23 07:02:55;;;;;;;14.30;13.10;;;;;;;3.67;100.00;97001.22;5027031;28;20088;-64
2023/11/23 07:05:23;;;;;;;12.68;11.77;;;;;;;3.71;100.00;97005.38;5024429;28;20518;-64
2023/11/23 07:07:48;;;;;;;10.73;9.82;;;;;;;3.82;100.00;97012.72;5024418;28;20501;-64
2023/11/23 07:10:15;;;;;;;12.25;10.93;;;;;;;3.82;100.00;97011.88;5021958;28;20341;-64
2023/11/23 07:12:41;;;;;;;11.32;10.32;;;;;;;3.70;100.00;97021.06;5022784;28;20471;-64
2023/11/23 07:15:08;;;;;;;14.80;13.55;;;;;;;3.71;100.00;97026.22;5024364;28;20029;-63
2023/11/23 07:17:33;;;;;;;21.77;19.95;;;;;;;3.58;100.00;97023.31;5031068;28;20029;-64
2023/11/23 07:19:59;;;;;;;20.88;19.20;;;;;;;3.58;100.00;97017.22;5025951;28;20422;-64
2023/11/23 07:22:24;;;;;;;23.67;21.77;;;;;;;3.54;100.00;97020.88;5016476;28;20015;-64
2023/11/23 07:24:50;;;;;;;15.07;13.73;;;;;;;3.66;100.00;97024.72;5026773;28;20029;-63
2023/11/23 07:27:16;;;;;;;17.40;15.80;;;;;;;3.52;100.00;97027.91;5026091;28;20037;-64
2023/11/23 07:29:41;;;;;;;16.25;14.85;;;;;;;3.50;100.00;97020.16;5020609;28;20048;-64
2023/11/23 07:32:09;;;;;;;19.95;18.13;;;;;;;3.53;100.00;97020.03;5021018;28;20471;-63
2023/11/23 07:34:35;;;;;;;14.38;13.38;;;;;;;3.58;100.00;97022.44;5028501;28;20053;-64
2023/11/23 07:37:00;;;;;;;14.48;13.35;;;;;;;3.58;100.00;97025.03;5027176;28;20026;-64
2023/11/23 07:39:26;;;;;;;22.08;20.08;;;;;;;3.59;100.00;97021.53;5019601;28;20026;-63
2023/11/23 07:41:52;;;;;;;16.95;15.60;;;;;;;3.63;100.00;97017.88;5013668;28;20032;-63
2023/11/23 07:44:18;;;;;;;12.35;11.23;;;;;;;3.60;100.00;97023.22;5020996;28;20504;-63
2023/11/23 07:46:45;;;;;;;16.38;15.18;;;;;;;3.72;100.00;97014.88;5021707;28;20835;-64
2023/11/23 07:49:10;;;;;;;12.13;11.13;;;;;;;3.70;100.00;97026.28;5017303;28;20616;-63
2023/11/23 07:51:36;;;;;;;10.95;10.07;;;;;;;3.70;100.00;97024.53;5027767;28;20081;-63
2023/11/23 07:54:01;;;;;;;13.25;11.65;;;;;;;3.69;100.00;97030.66;5028973;28;20030;-63
2023/11/23 07:56:27;;;;;;;12.98;11.88;;;;;;;3.69;100.00;97027.19;5013644;28;20021;-63
2023/11/23 07:58:52;;;;;;;14.90;13.60;;;;;;;3.73;100.00;97028.75;5022799;28;20022;-64
2023/11/23 08:01:18;;;;;;;17.85;16.25;;;;;;;3.72;100.00;97027.91;5025118;28;20111;-63
2023/11/23 08:03:43;;;;;;;18.35;15.48;;;;;;;3.70;100.00;97034.09;5029212;28;20023;-63
2023/11/23 08:06:09;;;;;;;13.25;12.13;;;;;;;3.71;100.00;97026.22;5026451;28;20491;-63
2023/11/23 08:08:35;;;;;;;14.60;12.40;;;;;;;3.72;100.00;97027.91;5014313;28;20022;-64
2023/11/23 08:11:00;;;;;;;11.50;10.43;;;;;;;3.83;100.00;97034.41;5017744;28;20037;-63
2023/11/23 08:13:26;;;;;;;12.30;11.20;;;;;;;3.95;100.00;97038.22;5021495;28;20093;-63
2023/11/23 08:15:52;;;;;;;14.93;13.52;;;;;;;3.81;100.00;97036.22;5014208;28;20032;-63
2023/11/23 08:18:17;;;;;;;17.02;15.63;;;;;;;3.80;100.00;97032.78;5042335;28;20450;-63
2023/11/23 08:20:44;;;;;;;16.98;15.57;;;;;;;3.85;100.00;97043.84;5034928;28;20018;-63
2023/11/23 08:23:12;;;;;;;17.75;16.17;;;;;;;3.77;100.00;97042.50;5016418;28;20029;-63
2023/11/23 08:25:39;;;;;;;17.45;16.05;;;;;;;3.81;100.00;97049.25;5017222;28;20076;-63
2023/11/23 08:28:05;;;;;;;16.27;14.57;;;;;;;3.78;100.00;97050.25;5016781;28;20061;-63
2023/11/23 08:30:30;;;;;;;27.20;21.30;;;;;;;3.76;100.00;97053.81;5022525;28;20017;-63
2023/11/23 08:32:55;;;;;;;54.65;48.97;;;;;;;3.72;100.00;97047.88;5029615;28;20091;-63
2023/11/23 08:35:21;;;;;;;38.38;34.38;;;;;;;3.75;100.00;97062.56;5020437;28;20510;-63
2023/11/23 08:37:47;;;;;;;16.75;15.35;;;;;;;3.77;100.00;97055.50;5016275;28;20037;-63
2023/11/23 08:40:13;;;;;;;14.23;12.95;;;;;;;3.85;100.00;97061.22;5024775;28;20052;-63
2023/11/23 08:42:39;;;;;;;16.15;14.75;;;;;;;3.84;100.00;97062.16;5032307;28;20025;-63
2023/11/23 08:45:05;;;;;;;15.43;14.00;;;;;;;3.86;100.00;97057.72;5016193;28;20030;-63
2023/11/23 08:47:30;;;;;;;16.95;15.48;;;;;;;3.87;100.00;97052.44;5023706;28;20025;-63
2023/11/23 08:49:56;;;;;;;16.52;15.23;;;;;;;3.82;100.00;97050.94;5029558;28;20025;-63
2023/11/23 08:52:21;;;;;;;16.60;15.30;;;;;;;3.82;100.00;97058.75;5035895;28;20040;-63
2023/11/23 08:54:47;;;;;;;16.10;14.70;;;;;;;3.86;100.00;97070.72;5032809;28;20042;-64
2023/11/23 08:57:12;;;;;;;14.02;12.93;;;;;;;3.79;100.00;97064.97;5022866;28;20033;-63
2023/11/23 08:59:38;;;;;;;15.38;13.98;;;;;;;3.80;100.00;97068.41;5031719;28;20036;-63
2023/11/23 09:02:05;;;;;;;16.13;14.82;;;;;;;3.87;100.00;97072.47;5023276;28;20041;-63
2023/11/23 09:04:34;;;;;;;16.23;13.93;;;;;;;3.90;100.00;97074.94;5037152;28;20024;-63
2023/11/23 09:07:00;;;;;;;15.23;13.80;;;;;;;3.94;100.00;97071.28;5022060;28;20018;-62
2023/11/23 09:09:25;;;;;;;13.70;12.38;;;;;;;3.86;100.00;97078.56;5025857;28;20048;-62
2023/11/23 09:11:51;;;;;;;16.55;15.10;;;;;;;3.77;100.00;97069.41;5021524;28;20475;-62
2023/11/23 09:14:16;;;;;;;14.88;13.68;;;;;;;3.77;100.00;97074.63;5017527;28;20462;-62
2023/11/23 09:16:44;;;;;;;15.60;14.40;;;;;;;3.77;100.00;97074.63;5018830;28;20110;-62
2023/11/23 09:19:09;;;;;;;16.00;14.77;;;;;;;3.82;100.00;97075.25;5026608;28;20189;-62
2023/11/23 09:21:35;;;;;;;15.75;14.35;;;;;;;3.84;100.00;97067.34;5029123;28;20021;-62
2023/11/23 09:24:05;;;;;;;15.35;14.13;;;;;;;3.87;100.00;97069.84;5015736;28;20540;-62
2023/11/23 09:26:33;;;;;;;15.23;14.00;;;;;;;3.85;100.00;97064.69;5015898;28;20045;-62
2023/11/23 09:28:59;;;;;;;16.85;15.35;;;;;;;3.90;100.00;97072.31;5016672;28;20032;-62
2023/11/23 09:31:29;;;;;;;15.23;13.75;;;;;;;3.91;100.00;97071.41;5017777;28;20113;-61
2023/11/23 09:33:55;;;;;;;14.90;13.55;;;;;;;3.95;100.00;97067.75;5026729;28;20518;-62
2023/11/23 09:36:20;;;;;;;15.43;14.15;;;;;;;3.93;100.00;97072.19;5017915;28;20014;-62
2023/11/23 09:38:46;;;;;;;16.05;14.85;;;;;;;3.89;100.00;97074.97;5017493;28;20025;-62
2023/11/23 09:41:18;;;;;;;16.48;14.98;;;;;;;3.95;100.00;97066.88;5016963;28;20025;-62
2023/11/23 09:43:46;;;;;;;16.75;15.45;;;;;;;4.05;100.00;97064.72;5017386;28;20018;-62
2023/11/23 09:46:11;;;;;;;17.95;16.50;;;;;;;4.08;100.00;97060.22;5017075;28;20032;-62
2023/11/23 09:48:39;;;;;;;18.05;16.40;;;;;;;4.14;100.00;97064.34;5016686;28;20030;-62
2023/11/23 09:51:09;;;;;;;16.45;15.05;;;;;;;4.11;100.00;97060.09;5034271;28;20056;-62
2023/11/23 09:53:35;;;;;;;16.05;14.68;;;;;;;4.06;100.00;97066.41;5017062;28;20010;-61
2023/11/23 09:56:03;;;;;;;15.57;14.35;;;;;;;4.03;100.00;97062.19;5016896;28;20030;-62
2023/11/23 09:58:30;;;;;;;16.00;14.70;;;;;;;3.98;100.00;97064.16;5017370;28;20529;-62
2023/11/23 10:01:00;;;;;;;16.92;15.35;;;;;;;3.95;100.00;97064.28;5031638;28;20056;-61
2023/11/23 10:03:34;;;;;;;16.15;14.63;;;;;;;3.99;100.00;97061.47;5017351;28;20467;-62
2023/11/23 10:06:03;;;;;;;16.95;15.30;;;;;;;3.99;100.00;97068.47;5033639;28;20460;-62
2023/11/23 10:08:28;;;;;;;26.17;20.30;;;;;;;3.91;100.00;97068.81;5025393;28;20521;-62
2023/11/23 10:10:56;;;;;;;23.08;20.00;;;;;;;4.10;100.00;97053.19;5028523;28;20096;-62
2023/11/23 10:13:21;;;;;;;18.48;16.20;;;;;;;4.22;100.00;97051.78;5031746;28;20017;-62
2023/11/23 10:15:47;;;;;;;17.40;15.68;;;;;;;3.96;100.00;97045.97;5017457;28;20741;-62
2023/11/23 10:18:13;;;;;;;17.02;14.90;;;;;;;3.93;100.00;97050.47;5025462;28;20041;-62
2023/11/23 10:20:43;;;;;;;18.58;14.85;;;;;;;3.91;100.00;97053.16;5019962;28;20109;-62
2023/11/23 10:23:09;;;;;;;21.30;19.08;;;;;;;3.77;100.00;97050.31;5019455;28;20034;-62
2023/11/23 10:25:35;;;;;;;18.52;16.67;;;;;;;3.64;100.00;97056.03;5020794;28;20500;-62
2023/11/23 10:28:06;;;;;;;17.17;15.77;;;;;;;3.65;100.00;97055.16;5019908;28;20053;-62
2023/11/23 10:30:32;;;;;;;18.63;16.95;;;;;;;3.68;100.00;97057.63;5015779;28;20133;-62
2023/11/23 10:32:59;;;;;;;19.30;17.40;;;;;;;3.70;100.00;97055.78;5015675;28;20033;-62
2023/11/23 10:35:36;;;;;;;18.45;16.75;;;;;;;3.97;100.00;97044.22;5019280;28;20033;-62
2023/11/23 10:38:02;;;;;;;17.65;15.80;;;;;;;4.03;100.00;97041.34;5017106;28;20060;-62
2023/11/23 10:40:29;;;;;;;15.57;14.13;;;;;;;4.21;100.00;97029.25;5017560;28;20025;-61
2023/11/23 10:42:56;;;;;;;16.42;15.00;;;;;;;4.03;100.00;97024.84;5015699;28;20034;-62
2023/11/23 10:45:22;;;;;;;20.70;18.15;;;;;;;4.01;100.00;97017.94;5023183;28;20021;-62
2023/11/23 10:47:51;;;;;;;17.48;15.88;;;;;;;3.97;100.00;97024.22;5021522;28;20026;-62
2023/11/23 10:50:18;;;;;;;15.88;14.48;;;;;;;4.14;100.00;97022.63;5027612;28;20064;-62
2023/11/23 10:52:45;;;;;;;16.65;14.73;;;;;;;4.20;100.00;97019.72;5021679;28;20032;-62
2023/11/23 10:55:11;;;;;;;16.35;14.65;;;;;;;4.23;100.00;97010.94;5014808;28;20032;-62
2023/11/23 10:57:41;;;;;;;17.73;16.10;;;;;;;4.02;100.00;97016.22;5014184;28;20042;-62
2023/11/23 11:00:15;;;;;;;20.27;18.00;;;;;;;3.77;100.00;97019.03;5020320;28;20026;-62
2023/11/23 11:02:42;;;;;;;10.43;9.43;;;;;;;3.73;100.00;97018.31;5016578;28;20032;-62
2023/11/23 11:05:31;;;;;;;16.15;14.63;;;;;;;3.78;100.00;97011.19;5015516;28;20025;-62
2023/11/23 11:08:05;;;;;;;18.73;16.88;;;;;;;3.62;100.00;97007.53;5016660;28;20489;-61
2023/11/23 11:10:43;;;;;;;14.75;13.30;;;;;;;3.38;100.00;97018.94;5015238;28;20026;-62
2023/11/23 11:13:13;;;;;;;8.63;7.85;;;;;;;3.43;100.00;97013.53;5015646;28;20030;-62
2023/11/23 11:15:50;;;;;;;18.15;11.75;;;;;;;3.26;100.00;97014.25;5016569;28;20127;-61